createdAt,value
2018-09-17T00:00:49.000Z,7.30
2018-09-17T00:03:16.424Z,7.27
2018-09-17T00:05:43.834Z,7.63
2018-09-17T00:08:11.268Z,7.57
2018-09-17T00:10:38.694Z,7.23
2018-09-17T00:13:06.122Z,7.20
2018-09-17T00:15:33.510Z,7.57
2018-09-17T00:18:00.953Z,7.77
2018-09-17T00:20:28.894Z,7.83
2018-09-17T00:22:56.303Z,7.63
2018-09-17T00:25:23.750Z,7.73
2018-09-17T00:27:51.158Z,8.10
2018-09-17T00:30:18.590Z,7.33
2018-09-17T00:32:46.035Z,7.57
2018-09-17T00:35:13.441Z,7.63
2018-09-17T00:37:40.834Z,7.83
2018-09-17T00:40:08.277Z,7.80
2018-09-17T00:42:35.691Z,7.67
2018-09-17T00:45:03.136Z,7.23
2018-09-17T00:47:30.570Z,7.77
2018-09-17T00:49:58.054Z,7.70
2018-09-17T00:52:25.458Z,7.90
2018-09-17T00:54:52.909Z,7.43
2018-09-17T00:57:20.320Z,7.23
2018-09-17T00:59:47.747Z,7.70
2018-09-17T01:02:15.177Z,7.93
2018-09-17T01:04:42.593Z,7.60
2018-09-17T01:07:10.012Z,7.57
2018-09-17T01:09:42.001Z,7.90
2018-09-17T01:12:09.949Z,8.17
2018-09-17T01:14:37.432Z,8.00
2018-09-17T01:17:04.917Z,7.87
2018-09-17T01:19:32.317Z,8.10
2018-09-17T01:21:59.743Z,8.10
2018-09-17T01:24:27.150Z,7.27
2018-09-17T01:26:54.585Z,7.83
2018-09-17T01:29:22.007Z,7.50
2018-09-17T01:31:49.553Z,7.40
2018-09-17T01:34:17.004Z,7.40
2018-09-17T01:36:44.395Z,7.70
2018-09-17T01:39:12.277Z,7.53
2018-09-17T01:41:39.703Z,7.37
2018-09-17T01:44:07.353Z,7.53
2018-09-17T01:46:35.153Z,7.40
2018-09-17T01:49:02.576Z,7.20
2018-09-17T01:51:29.976Z,7.33
2018-09-17T01:53:57.448Z,7.23
2018-09-17T01:56:25.074Z,7.10
2018-09-17T01:58:52.469Z,7.70
2018-09-17T02:01:19.874Z,7.47
2018-09-17T02:03:47.964Z,6.70
2018-09-17T02:06:15.392Z,7.40
2018-09-17T02:08:42.797Z,7.23
2018-09-17T02:11:10.201Z,7.30
2018-09-17T02:13:37.696Z,7.43
2018-09-17T02:16:05.390Z,7.80
2018-09-17T02:18:32.800Z,7.33
2018-09-17T02:21:00.187Z,7.10
2018-09-17T02:23:27.610Z,7.47
2018-09-17T02:25:55.054Z,7.43
2018-09-17T02:28:22.438Z,7.60
2018-09-17T02:30:49.850Z,7.13
2018-09-17T02:33:17.227Z,7.70
2018-09-17T02:35:44.725Z,7.40
2018-09-17T02:38:12.162Z,7.63
2018-09-17T02:40:39.580Z,7.43
2018-09-17T02:43:07.006Z,7.57
2018-09-17T02:45:34.406Z,7.30
2018-09-17T02:48:01.832Z,7.23
2018-09-17T02:50:29.238Z,7.37
2018-09-17T02:52:56.644Z,7.63
2018-09-17T02:55:24.077Z,7.23
2018-09-17T02:57:51.506Z,7.83
2018-09-17T03:00:19.608Z,7.53
2018-09-17T03:02:48.263Z,7.17
2018-09-17T03:05:15.664Z,7.40
2018-09-17T03:07:43.083Z,7.40
2018-09-17T03:10:10.516Z,7.47
2018-09-17T03:12:38.661Z,7.47
2018-09-17T03:15:17.539Z,7.27
2018-09-17T03:17:44.974Z,7.23
2018-09-17T03:20:12.386Z,7.20
2018-09-17T03:22:39.846Z,7.20
2018-09-17T03:25:07.219Z,7.40
2018-09-17T03:27:34.686Z,6.93
2018-09-17T03:30:02.139Z,7.13
2018-09-17T03:32:29.562Z,7.10
2018-09-17T03:34:56.935Z,7.20
2018-09-17T03:37:25.755Z,6.97
2018-09-17T03:39:53.233Z,7.90
2018-09-17T03:42:20.654Z,7.00
2018-09-17T03:44:48.032Z,7.03
2018-09-17T03:47:15.481Z,7.40
2018-09-17T03:49:42.901Z,7.60
2018-09-17T03:52:10.322Z,7.40
2018-09-17T03:54:37.729Z,8.00
2018-09-17T03:57:05.161Z,7.67
2018-09-17T03:59:32.579Z,7.47
2018-09-17T04:02:00.001Z,7.80
2018-09-17T04:04:27.391Z,7.40
2018-09-17T04:06:54.876Z,7.50
2018-09-17T04:09:22.297Z,8.20
2018-09-17T04:11:49.675Z,7.70
2018-09-17T04:14:17.204Z,7.80
2018-09-17T04:16:44.615Z,7.47
2018-09-17T04:19:12.063Z,7.40
2018-09-17T04:21:39.435Z,7.57
2018-09-17T04:24:06.877Z,7.23
2018-09-17T04:26:34.309Z,7.53
2018-09-17T04:29:01.746Z,7.10
2018-09-17T04:31:29.246Z,7.70
2018-09-17T04:33:56.632Z,7.47
2018-09-17T04:36:24.025Z,8.20
2018-09-17T04:38:51.476Z,7.17
2018-09-17T04:41:18.877Z,7.13
2018-09-17T04:43:46.336Z,7.90
2018-09-17T04:46:13.759Z,7.37
2018-09-17T04:48:41.175Z,7.13
2018-09-17T04:51:08.628Z,7.00
2018-09-17T04:53:36.052Z,6.90
2018-09-17T04:56:03.448Z,7.00
2018-09-17T04:58:30.858Z,7.10
2018-09-17T05:00:58.290Z,6.73
2018-09-17T05:03:25.682Z,7.00
2018-09-17T05:05:53.104Z,7.13
2018-09-17T05:08:20.537Z,6.70
2018-09-17T05:10:47.970Z,6.77
2018-09-17T05:13:15.420Z,6.40
2018-09-17T05:15:42.794Z,6.30
2018-09-17T05:18:10.162Z,6.03
2018-09-17T05:20:37.649Z,6.33
2018-09-17T05:23:05.031Z,6.37
2018-09-17T05:25:32.463Z,6.10
2018-09-17T05:27:59.901Z,5.80
2018-09-17T05:30:27.326Z,6.50
2018-09-17T05:32:54.727Z,7.20
2018-09-17T05:35:22.160Z,6.47
2018-09-17T05:37:49.595Z,6.53
2018-09-17T05:40:16.974Z,5.93
2018-09-17T05:42:44.448Z,5.97
2018-09-17T05:45:11.845Z,6.30
2018-09-17T05:47:39.247Z,6.50
2018-09-17T05:50:06.705Z,6.43
2018-09-17T05:52:34.165Z,6.30
2018-09-17T05:55:01.669Z,6.20
2018-09-17T05:57:29.079Z,6.67
2018-09-17T05:59:56.491Z,6.33
2018-09-17T06:02:23.923Z,5.73
2018-09-17T06:04:51.337Z,5.97
2018-09-17T06:07:18.767Z,6.57
2018-09-17T06:09:46.226Z,6.80
2018-09-17T06:12:13.594Z,8.57
2018-09-17T06:14:41.040Z,7.97
2018-09-17T06:17:08.464Z,7.00
2018-09-17T06:19:35.911Z,6.20
2018-09-17T06:22:03.321Z,6.67
2018-09-17T06:24:30.742Z,6.60
2018-09-17T06:26:58.140Z,6.53
2018-09-17T06:29:25.584Z,6.70
2018-09-17T06:31:53.010Z,6.50
2018-09-17T06:34:20.436Z,6.50
2018-09-17T06:36:47.863Z,6.77
2018-09-17T06:39:15.245Z,6.97
2018-09-17T06:41:42.725Z,6.77
2018-09-17T06:44:10.122Z,7.03
2018-09-17T06:46:37.558Z,7.37
2018-09-17T06:49:04.973Z,7.33
2018-09-17T06:51:32.364Z,6.93
2018-09-17T06:53:59.757Z,6.97
2018-09-17T06:56:27.172Z,6.70
2018-09-17T06:58:54.654Z,7.07
2018-09-17T07:01:22.048Z,7.33
2018-09-17T07:03:50.142Z,7.20
2018-09-17T07:06:17.570Z,7.20
2018-09-17T07:08:45.231Z,7.03
2018-09-17T07:11:12.646Z,7.23
2018-09-17T07:13:40.433Z,7.47
2018-09-17T07:16:08.387Z,7.07
2018-09-17T07:18:36.652Z,7.57
2018-09-17T07:21:04.136Z,8.47
2018-09-17T07:23:31.587Z,8.67
2018-09-17T07:25:59.005Z,9.53
2018-09-17T07:28:26.433Z,8.30
2018-09-17T07:30:53.827Z,7.77
2018-09-17T07:33:21.278Z,8.57
2018-09-17T07:35:48.743Z,8.10
2018-09-17T07:38:16.121Z,7.23
2018-09-17T07:40:43.537Z,7.80
2018-09-17T07:43:10.971Z,8.63
2018-09-17T07:45:38.373Z,8.37
2018-09-17T07:48:05.922Z,9.20
2018-09-17T07:50:33.335Z,8.13
2018-09-17T07:53:00.793Z,9.30
2018-09-17T07:55:28.189Z,10.20
2018-09-17T07:57:55.578Z,8.00
2018-09-17T08:00:22.959Z,7.50
2018-09-17T08:02:50.393Z,7.27
2018-09-17T08:05:17.863Z,7.70
2018-09-17T08:07:45.369Z,7.50
2018-09-17T08:10:18.485Z,7.67
2018-09-17T08:12:46.036Z,6.90
2018-09-17T08:15:13.439Z,6.83
2018-09-17T08:17:40.855Z,6.10
2018-09-17T08:20:08.276Z,6.77
2018-09-17T08:22:35.694Z,6.10
2018-09-17T08:25:03.189Z,6.43
2018-09-17T08:27:30.646Z,6.37
2018-09-17T08:29:58.054Z,6.30
2018-09-17T08:32:25.470Z,6.20
2018-09-17T08:34:52.845Z,6.27
2018-09-17T08:37:20.252Z,5.73
2018-09-17T08:39:47.635Z,6.17
2018-09-17T08:42:15.051Z,5.80
2018-09-17T08:44:42.446Z,6.00
2018-09-17T08:47:09.874Z,5.27
2018-09-17T08:49:37.299Z,6.23
2018-09-17T08:52:04.837Z,5.90
2018-09-17T08:54:36.838Z,5.70
2018-09-17T08:57:08.880Z,6.37
2018-09-17T08:59:42.005Z,5.87
2018-09-17T09:02:16.312Z,5.80
2018-09-17T09:04:49.556Z,6.10
2018-09-17T09:07:22.610Z,6.10
2018-09-17T09:09:50.114Z,6.00
2018-09-17T09:12:22.904Z,5.67
2018-09-17T09:14:55.271Z,5.70
2018-09-17T09:17:22.713Z,5.63
2018-09-17T09:19:50.102Z,5.40
2018-09-17T09:22:17.520Z,5.43
2018-09-17T09:24:44.960Z,5.10
2018-09-17T09:27:12.323Z,5.80
2018-09-17T09:29:39.791Z,6.07
2018-09-17T09:32:07.212Z,5.60
2018-09-17T09:34:34.612Z,5.83
2018-09-17T09:37:02.026Z,5.43
2018-09-17T09:39:29.454Z,5.50
2018-09-17T09:41:56.886Z,5.17
2018-09-17T09:44:24.370Z,5.20
2018-09-17T09:46:51.854Z,5.83
2018-09-17T09:49:19.279Z,5.33
2018-09-17T09:51:46.714Z,5.30
2018-09-17T09:54:14.164Z,5.50
2018-09-17T09:56:41.686Z,5.03
2018-09-17T09:59:09.124Z,5.33
2018-09-17T10:01:43.014Z,4.70
2018-09-17T10:04:16.109Z,4.97
2018-09-17T10:06:43.565Z,5.13
2018-09-17T10:09:16.569Z,4.90
2018-09-17T10:11:49.698Z,4.93
2018-09-17T10:14:23.091Z,5.07
2018-09-17T10:16:56.107Z,4.90
2018-09-17T10:19:24.738Z,4.53
2018-09-17T10:21:52.125Z,4.70
2018-09-17T10:24:19.549Z,4.57
2018-09-17T10:26:46.981Z,4.57
2018-09-17T10:29:14.477Z,4.60
2018-09-17T10:31:42.253Z,4.57
2018-09-17T10:34:09.647Z,4.57
2018-09-17T10:36:37.067Z,4.47
2018-09-17T10:39:07.068Z,4.33
2018-09-17T10:41:34.464Z,4.40
2018-09-17T10:44:01.883Z,4.33
2018-09-17T10:46:29.317Z,4.40
2018-09-17T10:48:56.839Z,4.60
2018-09-17T10:51:24.253Z,4.40
2018-09-17T10:53:51.672Z,4.25
2018-09-17T10:56:19.108Z,4.22
2018-09-17T10:58:46.500Z,4.50
2018-09-17T11:01:13.925Z,4.45
2018-09-17T11:03:41.394Z,3.98
2018-09-17T11:06:10.462Z,4.40
2018-09-17T11:08:37.987Z,4.03
2018-09-17T11:11:05.974Z,4.03
2018-09-17T11:13:33.400Z,3.93
2018-09-17T11:16:00.817Z,4.07
2018-09-17T11:18:28.261Z,4.47
2018-09-17T11:20:55.686Z,4.10
2018-09-17T11:23:23.133Z,3.80
2018-09-17T11:25:52.211Z,3.83
2018-09-17T11:28:19.675Z,4.12
2018-09-17T11:30:47.140Z,4.07
2018-09-17T11:33:14.593Z,3.85
2018-09-17T11:35:42.034Z,4.22
2018-09-17T11:38:09.776Z,4.07
2018-09-17T11:40:37.283Z,3.95
2018-09-17T11:43:04.812Z,4.23
2018-09-17T11:45:32.215Z,4.20
2018-09-17T11:47:59.684Z,4.20
2018-09-17T11:50:27.270Z,4.13
2018-09-17T11:52:54.676Z,4.15
2018-09-17T11:55:22.115Z,3.92
2018-09-17T11:57:49.532Z,4.20
2018-09-17T12:00:22.626Z,3.98
2018-09-17T12:02:55.727Z,4.33
2018-09-17T12:05:28.908Z,4.05
2018-09-17T12:07:56.414Z,3.98
2018-09-17T12:10:23.831Z,3.72
2018-09-17T12:12:51.276Z,3.87
2018-09-17T12:15:18.708Z,3.95
2018-09-17T12:17:46.167Z,4.00
2018-09-17T12:20:13.599Z,4.17
2018-09-17T12:22:41.022Z,4.00
2018-09-17T12:25:08.452Z,4.08
2018-09-17T12:27:35.858Z,3.85
2018-09-17T12:30:03.347Z,3.87
2018-09-17T12:32:30.722Z,3.85
2018-09-17T12:34:58.163Z,3.83
2018-09-17T12:37:25.643Z,3.90
2018-09-17T12:39:53.094Z,4.10
2018-09-17T12:42:20.527Z,3.85
2018-09-17T12:44:47.972Z,4.03
2018-09-17T12:47:15.651Z,3.77
2018-09-17T12:49:43.162Z,3.72
2018-09-17T12:52:10.588Z,3.85
2018-09-17T12:54:38.129Z,4.10
2018-09-17T12:57:05.710Z,3.92
2018-09-17T12:59:33.236Z,3.92
2018-09-17T13:02:00.715Z,3.75
2018-09-17T13:04:28.195Z,4.00
2018-09-17T13:06:55.685Z,4.25
2018-09-17T13:09:23.139Z,4.10
2018-09-17T13:11:50.588Z,4.03
2018-09-17T13:14:18.037Z,3.83
2018-09-17T13:16:45.488Z,3.80
2018-09-17T13:19:12.967Z,3.80
2018-09-17T13:21:40.446Z,4.15
2018-09-17T13:24:08.048Z,3.90
2018-09-17T13:26:36.271Z,3.85
2018-09-17T13:29:03.913Z,3.58
2018-09-17T13:31:31.843Z,4.22
2018-09-17T13:33:59.257Z,4.33
2018-09-17T13:36:26.729Z,4.28
2018-09-17T13:38:54.221Z,4.80
2018-09-17T13:41:21.665Z,4.08
2018-09-17T13:43:49.101Z,4.28
2018-09-17T13:46:16.632Z,4.50
2018-09-17T13:48:44.063Z,4.55
2018-09-17T13:51:11.486Z,4.47
2018-09-17T13:53:39.045Z,4.72
2018-09-17T13:56:06.405Z,4.40
2018-09-17T13:58:33.864Z,4.55
2018-09-17T14:01:01.263Z,4.30
2018-09-17T14:03:28.686Z,4.60
2018-09-17T14:05:56.098Z,5.17
2018-09-17T14:08:23.536Z,4.45
2018-09-17T14:10:50.972Z,4.53
2018-09-17T14:13:18.452Z,5.00
2018-09-17T14:15:51.599Z,4.47
2018-09-17T14:18:19.032Z,4.78
2018-09-17T14:20:46.769Z,4.70
2018-09-17T14:23:14.208Z,4.47
2018-09-17T14:25:41.630Z,4.83
2018-09-17T14:28:09.117Z,5.37
2018-09-17T14:30:36.551Z,4.67
2018-09-17T14:33:09.781Z,4.75
2018-09-17T14:35:37.351Z,5.10
2018-09-17T14:38:04.600Z,5.40
2018-09-17T14:40:32.040Z,5.03
2018-09-17T14:42:59.428Z,5.17
2018-09-17T14:45:26.879Z,5.03
2018-09-17T14:47:54.326Z,5.30
2018-09-17T14:50:21.822Z,5.37
2018-09-17T14:52:49.242Z,5.63
2018-09-17T14:55:16.670Z,5.23
2018-09-17T14:57:44.062Z,5.00
2018-09-17T15:00:11.566Z,4.90
2018-09-17T15:02:38.985Z,5.00
2018-09-17T15:05:06.519Z,5.70
2018-09-17T15:07:33.967Z,5.20
2018-09-17T15:10:01.408Z,5.27
2018-09-17T15:12:29.057Z,4.87
2018-09-17T15:14:56.473Z,5.13
2018-09-17T15:17:23.877Z,5.27
2018-09-17T15:19:51.288Z,5.03
2018-09-17T15:22:18.798Z,5.17
2018-09-17T15:24:46.126Z,5.17
2018-09-17T15:27:13.574Z,5.00
2018-09-17T15:29:41.014Z,5.00
2018-09-17T15:32:08.500Z,5.57
2018-09-17T15:34:35.884Z,5.30
2018-09-17T15:37:03.330Z,4.97
2018-09-17T15:39:30.756Z,5.27
2018-09-17T15:41:58.188Z,5.23
2018-09-17T15:44:25.737Z,5.30
2018-09-17T15:46:53.108Z,5.73
2018-09-17T15:49:20.519Z,5.70
2018-09-17T15:51:48.042Z,5.80
2018-09-17T15:54:15.431Z,5.37
2018-09-17T15:56:42.850Z,4.80
2018-09-17T15:59:10.304Z,4.87
2018-09-17T16:01:37.769Z,4.90
2018-09-17T16:04:05.198Z,5.10
2018-09-17T16:06:32.641Z,5.20
2018-09-17T16:09:00.059Z,5.53
2018-09-17T16:11:27.555Z,5.67
2018-09-17T16:13:55.008Z,5.37
2018-09-17T16:16:22.429Z,5.30
2018-09-17T16:18:49.863Z,5.73
2018-09-17T16:21:17.279Z,5.27
2018-09-17T16:23:44.685Z,5.70
2018-09-17T16:26:12.063Z,5.13
2018-09-17T16:28:39.489Z,5.10
2018-09-17T16:31:06.906Z,5.57
2018-09-17T16:33:34.369Z,5.27
2018-09-17T16:36:01.794Z,5.27
2018-09-17T16:38:29.200Z,5.40
2018-09-17T16:40:56.624Z,5.50
2018-09-17T16:43:24.053Z,5.27
2018-09-17T16:45:51.466Z,5.07
2018-09-17T16:48:19.112Z,5.30
2018-09-17T16:50:46.565Z,5.37
2018-09-17T16:53:14.014Z,5.40
2018-09-17T16:55:41.426Z,5.47
2018-09-17T16:58:08.949Z,5.03
2018-09-17T17:00:36.399Z,5.17
2018-09-17T17:03:03.824Z,5.93
2018-09-17T17:05:31.313Z,5.07
2018-09-17T17:07:58.726Z,5.47
2018-09-17T17:10:26.159Z,5.33
2018-09-17T17:12:53.670Z,5.57
2018-09-17T17:15:21.128Z,5.70
2018-09-17T17:17:48.571Z,5.27
2018-09-17T17:20:16.005Z,5.70
2018-09-17T17:22:43.464Z,5.80
2018-09-17T17:25:10.908Z,5.17
2018-09-17T17:27:38.375Z,5.40
2018-09-17T17:30:05.929Z,5.70
2018-09-17T17:32:33.438Z,5.80
2018-09-17T17:35:00.943Z,5.77
2018-09-17T17:37:28.441Z,5.77
2018-09-17T17:39:55.991Z,6.00
2018-09-17T17:42:23.397Z,5.87
2018-09-17T17:44:50.795Z,5.53
2018-09-17T17:47:18.253Z,5.77
2018-09-17T17:49:45.683Z,5.83
2018-09-17T17:52:13.233Z,6.50
2018-09-17T17:54:40.745Z,7.17
2018-09-17T17:57:08.207Z,6.60
2018-09-17T17:59:35.644Z,5.67
2018-09-17T18:02:03.118Z,5.67
2018-09-17T18:04:30.837Z,5.83
2018-09-17T18:06:58.343Z,6.30
2018-09-17T18:09:25.761Z,5.80
2018-09-17T18:11:53.198Z,5.57
2018-09-17T18:14:20.614Z,6.03
2018-09-17T18:16:48.063Z,5.80
2018-09-17T18:19:15.687Z,5.67
2018-09-17T18:21:43.212Z,6.30
2018-09-17T18:24:10.831Z,5.97
2018-09-17T18:26:38.272Z,6.20
2018-09-17T18:29:05.710Z,6.23
2018-09-17T18:31:33.132Z,6.43
2018-09-17T18:34:00.609Z,6.57
2018-09-17T18:36:28.106Z,6.37
2018-09-17T18:38:55.585Z,6.53
2018-09-17T18:41:23.094Z,6.60
2018-09-17T18:43:50.682Z,6.80
2018-09-17T18:46:18.106Z,6.97
2018-09-17T18:48:45.653Z,6.33
2018-09-17T18:51:13.079Z,6.67
2018-09-17T18:53:40.511Z,7.03
2018-09-17T18:56:08.001Z,7.03
2018-09-17T18:58:35.464Z,7.10
2018-09-17T19:01:02.920Z,6.97
2018-09-17T19:03:30.367Z,6.67
2018-09-17T19:05:57.884Z,6.67
2018-09-17T19:08:25.628Z,6.67
2018-09-17T19:10:53.058Z,6.60
2018-09-17T19:13:20.498Z,7.53
2018-09-17T19:15:52.160Z,7.20
2018-09-17T19:18:19.708Z,6.80
2018-09-17T19:20:48.365Z,6.57
2018-09-17T19:23:21.199Z,6.73
2018-09-17T19:25:48.725Z,6.97
2018-09-17T19:28:21.963Z,6.73
2018-09-17T19:30:49.651Z,7.37
2018-09-17T19:33:17.130Z,6.60
2018-09-17T19:35:44.954Z,7.00
2018-09-17T19:38:18.076Z,6.87
2018-09-17T19:40:45.501Z,6.97
2018-09-17T19:43:12.923Z,6.70
2018-09-17T19:45:46.302Z,6.50
2018-09-17T19:48:13.692Z,7.03
2018-09-17T19:50:46.747Z,6.67
2018-09-17T19:53:14.210Z,7.17
2018-09-17T19:55:41.750Z,7.40
2018-09-17T19:58:14.947Z,6.97
2018-09-17T20:00:42.424Z,7.80
2018-09-17T20:03:09.848Z,7.57
2018-09-17T20:05:42.851Z,6.83
2018-09-17T20:08:10.305Z,7.20
2018-09-17T20:10:38.082Z,7.53
2018-09-17T20:13:05.531Z,7.33
2018-09-17T20:15:32.926Z,8.00
2018-09-17T20:18:00.339Z,7.60
2018-09-17T20:20:27.808Z,7.13
2018-09-17T20:22:55.498Z,7.33
2018-09-17T20:25:22.940Z,7.73
2018-09-17T20:27:50.403Z,7.70
2018-09-17T20:30:17.914Z,7.60
2018-09-17T20:32:45.825Z,7.50
2018-09-17T20:35:14.008Z,7.47
2018-09-17T20:37:41.465Z,7.30
2018-09-17T20:40:08.945Z,7.73
2018-09-17T20:42:36.410Z,8.10
2018-09-17T20:45:03.896Z,7.77
2018-09-17T20:47:31.343Z,8.70
2018-09-17T20:49:58.847Z,8.03
2018-09-17T20:52:26.358Z,8.37
2018-09-17T20:54:53.825Z,8.37
2018-09-17T20:57:21.250Z,8.23
2018-09-17T20:59:48.674Z,7.70
2018-09-17T21:02:16.096Z,7.87
2018-09-17T21:04:43.576Z,7.80
2018-09-17T21:07:11.045Z,7.87
2018-09-17T21:09:38.452Z,7.93
2018-09-17T21:12:05.976Z,7.63
2018-09-17T21:14:33.414Z,8.43
2018-09-17T21:17:00.856Z,9.30
2018-09-17T21:19:28.519Z,9.63
2018-09-17T21:21:56.060Z,9.50
2018-09-17T21:24:23.451Z,7.97
2018-09-17T21:26:50.903Z,7.93
2018-09-17T21:29:18.320Z,8.20
2018-09-17T21:31:45.802Z,7.53
2018-09-17T21:34:13.244Z,7.87
2018-09-17T21:36:40.729Z,8.47
2018-09-17T21:39:10.051Z,8.57
2018-09-17T21:41:37.711Z,7.87
2018-09-17T21:44:05.255Z,8.17
2018-09-17T21:46:32.743Z,8.80
2018-09-17T21:49:00.178Z,8.17
2018-09-17T21:51:27.606Z,8.27
2018-09-17T21:53:55.050Z,8.60
2018-09-17T21:56:22.744Z,8.03
2018-09-17T21:58:50.159Z,8.60
2018-09-17T22:01:18.889Z,8.73
2018-09-17T22:03:47.073Z,8.03
2018-09-17T22:06:14.477Z,7.80
2018-09-17T22:08:41.969Z,8.03
2018-09-17T22:11:09.493Z,7.63
2018-09-17T22:13:37.020Z,7.20
2018-09-17T22:16:04.439Z,7.50
2018-09-17T22:18:31.867Z,7.60
2018-09-17T22:20:59.270Z,7.60
2018-09-17T22:23:26.717Z,7.97
2018-09-17T22:25:54.121Z,7.33
2018-09-17T22:28:21.533Z,8.17
2018-09-17T22:30:49.082Z,8.00
2018-09-17T22:33:16.557Z,8.30
2018-09-17T22:35:43.973Z,7.63
2018-09-17T22:38:11.403Z,7.43
2018-09-17T22:40:38.817Z,7.43
2018-09-17T22:43:06.255Z,6.90
2018-09-17T22:45:33.680Z,7.47
2018-09-17T22:48:01.137Z,7.30
2018-09-17T22:50:28.641Z,7.20
2018-09-17T22:52:56.950Z,7.00
2018-09-17T22:55:24.332Z,7.27
2018-09-17T22:57:51.798Z,7.17
2018-09-17T23:00:19.222Z,7.10
2018-09-17T23:02:46.646Z,7.27
2018-09-17T23:05:14.066Z,6.53
2018-09-17T23:07:41.477Z,7.07
2018-09-17T23:10:09.551Z,6.87
2018-09-17T23:12:36.938Z,7.03
2018-09-17T23:15:04.416Z,6.57
2018-09-17T23:17:31.828Z,7.17
2018-09-17T23:19:59.260Z,7.10
2018-09-17T23:22:26.662Z,7.10
2018-09-17T23:24:54.087Z,6.80
2018-09-17T23:27:21.492Z,6.80
2018-09-17T23:29:48.921Z,6.77
2018-09-17T23:32:16.361Z,6.73
2018-09-17T23:34:43.784Z,6.63
2018-09-17T23:37:11.236Z,6.97
2018-09-17T23:39:38.624Z,7.00
2018-09-17T23:42:06.078Z,6.53
2018-09-17T23:44:33.461Z,6.47
2018-09-17T23:47:00.879Z,6.80
2018-09-17T23:49:28.271Z,6.80
2018-09-17T23:51:55.695Z,6.63
2018-09-17T23:54:23.151Z,6.87
2018-09-17T23:56:50.617Z,6.90
2018-09-17T23:59:18.059Z,6.73
